sensor_id;sensor_type;location;lat;lon;timestamp;P1;durP1;ratioP1;P2;durP2;ratioP2
42194;SDS011;27863;49.440;11.102;2023-04-19T00:02:08;6.00;;;5.50;;
42194;SDS011;27863;49.440;11.102;2023-04-19T00:05:09;5.93;;;5.43;;
42194;SDS011;27863;49.440;11.102;2023-04-19T00:08:12;7.17;;;6.57;;
42194;SDS011;27863;49.440;11.102;2023-04-19T00:11:13;6.97;;;6.37;;
42194;SDS011;27863;49.440;11.102;2023-04-19T00:14:16;6.57;;;6.07;;
42194;SDS011;27863;49.440;11.102;2023-04-19T00:17:16;7.00;;;6.40;;
42194;SDS011;27863;49.440;11.102;2023-04-19T00:20:20;6.93;;;6.33;;
42194;SDS011;27863;49.440;11.102;2023-04-19T00:23:21;7.37;;;6.67;;
42194;SDS011;27863;49.440;11.102;2023-04-19T00:26:21;8.07;;;7.37;;
42194;SDS011;27863;49.440;11.102;2023-04-19T00:29:25;7.17;;;6.57;;
42194;SDS011;27863;49.440;11.102;2023-04-19T00:32:26;8.40;;;7.70;;
42194;SDS011;27863;49.440;11.102;2023-04-19T00:35:26;6.27;;;5.73;;
42194;SDS011;27863;49.440;11.102;2023-04-19T00:38:27;7.90;;;7.20;;
42194;SDS011;27863;49.440;11.102;2023-04-19T00:41:30;7.43;;;6.50;;
42194;SDS011;27863;49.440;11.102;2023-04-19T00:44:31;7.60;;;6.90;;
42194;SDS011;27863;49.440;11.102;2023-04-19T00:47:31;8.13;;;7.30;;
42194;SDS011;27863;49.440;11.102;2023-04-19T00:50:32;7.50;;;6.80;;
42194;SDS011;27863;49.440;11.102;2023-04-19T00:53:37;7.47;;;6.87;;
42194;SDS011;27863;49.440;11.102;2023-04-19T00:56:38;8.23;;;7.43;;
42194;SDS011;27863;49.440;11.102;2023-04-19T00:59:39;6.90;;;6.23;;
42194;SDS011;27863;49.440;11.102;2023-04-19T01:02:43;7.30;;;6.60;;
42194;SDS011;27863;49.440;11.102;2023-04-19T01:05:45;10.93;;;7.90;;
42194;SDS011;27863;49.440;11.102;2023-04-19T01:08:47;8.67;;;7.97;;
42194;SDS011;27863;49.440;11.102;2023-04-19T01:11:49;8.07;;;7.33;;
42194;SDS011;27863;49.440;11.102;2023-04-19T01:14:49;7.20;;;6.50;;
42194;SDS011;27863;49.440;11.102;2023-04-19T01:17:51;8.50;;;7.70;;
42194;SDS011;27863;49.440;11.102;2023-04-19T01:20:51;8.80;;;8.00;;
42194;SDS011;27863;49.440;11.102;2023-04-19T01:23:55;8.13;;;7.37;;
42194;SDS011;27863;49.440;11.102;2023-04-19T01:26:56;8.07;;;7.33;;
42194;SDS011;27863;49.440;11.102;2023-04-19T01:29:56;8.30;;;7.60;;
42194;SDS011;27863;49.440;11.102;2023-04-19T01:32:59;7.57;;;6.93;;
42194;SDS011;27863;49.440;11.102;2023-04-19T01:36:00;8.43;;;7.63;;
42194;SDS011;27863;49.440;11.102;2023-04-19T01:39:00;8.57;;;7.77;;
42194;SDS011;27863;49.440;11.102;2023-04-19T01:42:01;7.77;;;7.07;;
42194;SDS011;27863;49.440;11.102;2023-04-19T01:45:03;8.80;;;7.93;;
42194;SDS011;27863;49.440;11.102;2023-04-19T01:48:04;7.50;;;6.80;;
42194;SDS011;27863;49.440;11.102;2023-04-19T01:51:08;7.93;;;7.27;;
42194;SDS011;27863;49.440;11.102;2023-04-19T01:54:08;7.83;;;7.03;;
42194;SDS011;27863;49.440;11.102;2023-04-19T01:57:09;8.50;;;7.70;;
42194;SDS011;27863;49.440;11.102;2023-04-19T02:00:10;8.17;;;7.47;;
42194;SDS011;27863;49.440;11.102;2023-04-19T02:03:16;10.37;;;8.23;;
42194;SDS011;27863;49.440;11.102;2023-04-19T02:06:17;8.70;;;7.90;;
42194;SDS011;27863;49.440;11.102;2023-04-19T02:09:17;10.50;;;7.63;;
42194;SDS011;27863;49.440;11.102;2023-04-19T02:12:19;8.70;;;7.90;;
42194;SDS011;27863;49.440;11.102;2023-04-19T02:15:20;8.43;;;7.73;;
42194;SDS011;27863;49.440;11.102;2023-04-19T02:18:21;8.87;;;8.07;;
42194;SDS011;27863;49.440;11.102;2023-04-19T02:21:23;9.37;;;8.47;;
42194;SDS011;27863;49.440;11.102;2023-04-19T02:24:26;8.17;;;7.57;;
42194;SDS011;27863;49.440;11.102;2023-04-19T02:27:27;9.80;;;8.90;;
42194;SDS011;27863;49.440;11.102;2023-04-19T02:30:28;8.40;;;7.60;;
42194;SDS011;27863;49.440;11.102;2023-04-19T02:33:28;11.63;;;9.20;;
42194;SDS011;27863;49.440;11.102;2023-04-19T02:36:30;11.10;;;8.47;;
42194;SDS011;27863;49.440;11.102;2023-04-19T02:39:31;9.17;;;8.37;;
42194;SDS011;27863;49.440;11.102;2023-04-19T02:42:33;9.87;;;8.97;;
42194;SDS011;27863;49.440;11.102;2023-04-19T02:45:34;11.27;;;9.33;;
42194;SDS011;27863;49.440;11.102;2023-04-19T02:48:35;12.30;;;9.87;;
42194;SDS011;27863;49.440;11.102;2023-04-19T02:51:36;10.83;;;9.83;;
42194;SDS011;27863;49.440;11.102;2023-04-19T02:54:36;10.23;;;9.23;;
42194;SDS011;27863;49.440;11.102;2023-04-19T02:57:37;9.13;;;8.33;;
42194;SDS011;27863;49.440;11.102;2023-04-19T03:00:39;10.40;;;9.50;;
42194;SDS011;27863;49.440;11.102;2023-04-19T03:03:44;9.17;;;8.30;;
42194;SDS011;27863;49.440;11.102;2023-04-19T03:06:47;10.10;;;9.00;;
42194;SDS011;27863;49.440;11.102;2023-04-19T03:09:47;9.37;;;8.40;;
42194;SDS011;27863;49.440;11.102;2023-04-19T03:12:48;8.63;;;7.83;;
42194;SDS011;27863;49.440;11.102;2023-04-19T03:15:49;10.27;;;9.37;;
42194;SDS011;27863;49.440;11.102;2023-04-19T03:18:53;10.63;;;8.70;;
42194;SDS011;27863;49.440;11.102;2023-04-19T03:21:58;9.10;;;8.23;;
42194;SDS011;27863;49.440;11.102;2023-04-19T03:24:58;10.00;;;9.00;;
42194;SDS011;27863;49.440;11.102;2023-04-19T03:27:59;8.90;;;8.00;;
42194;SDS011;27863;49.440;11.102;2023-04-19T03:31:26;9.23;;;8.33;;
42194;SDS011;27863;49.440;11.102;2023-04-19T03:34:27;9.17;;;8.27;;
42194;SDS011;27863;49.440;11.102;2023-04-19T03:37:28;9.27;;;8.47;;
42194;SDS011;27863;49.440;11.102;2023-04-19T03:40:32;9.70;;;8.80;;
42194;SDS011;27863;49.440;11.102;2023-04-19T03:43:33;9.87;;;8.90;;
42194;SDS011;27863;49.440;11.102;2023-04-19T03:46:33;9.33;;;8.47;;
42194;SDS011;27863;49.440;11.102;2023-04-19T03:49:34;11.63;;;8.60;;
42194;SDS011;27863;49.440;11.102;2023-04-19T03:52:55;10.27;;;9.37;;
42194;SDS011;27863;49.440;11.102;2023-04-19T03:55:56;10.30;;;9.30;;
42194;SDS011;27863;49.440;11.102;2023-04-19T03:58:56;9.83;;;8.93;;
42194;SDS011;27863;49.440;11.102;2023-04-19T04:01:57;9.53;;;8.60;;
42194;SDS011;27863;49.440;11.102;2023-04-19T04:04:57;10.50;;;9.50;;
42194;SDS011;27863;49.440;11.102;2023-04-19T04:07:58;10.63;;;9.63;;
42194;SDS011;27863;49.440;11.102;2023-04-19T04:10:59;10.87;;;9.87;;
42194;SDS011;27863;49.440;11.102;2023-04-19T04:14:00;10.10;;;9.20;;
42194;SDS011;27863;49.440;11.102;2023-04-19T04:17:04;12.40;;;9.10;;
42194;SDS011;27863;49.440;11.102;2023-04-19T04:20:05;16.87;;;9.67;;
42194;SDS011;27863;49.440;11.102;2023-04-19T04:23:07;10.77;;;9.77;;
42194;SDS011;27863;49.440;11.102;2023-04-19T04:26:10;9.70;;;8.70;;
42194;SDS011;27863;49.440;11.102;2023-04-19T04:29:26;10.73;;;9.60;;
42194;SDS011;27863;49.440;11.102;2023-04-19T04:32:30;10.63;;;9.63;;
42194;SDS011;27863;49.440;11.102;2023-04-19T04:35:35;11.30;;;10.10;;
42194;SDS011;27863;49.440;11.102;2023-04-19T04:38:42;11.40;;;10.20;;
42194;SDS011;27863;49.440;11.102;2023-04-19T04:41:42;10.37;;;9.43;;
42194;SDS011;27863;49.440;11.102;2023-04-19T04:44:43;11.63;;;10.63;;
42194;SDS011;27863;49.440;11.102;2023-04-19T04:47:44;10.93;;;9.83;;
42194;SDS011;27863;49.440;11.102;2023-04-19T04:50:49;10.73;;;9.63;;
42194;SDS011;27863;49.440;11.102;2023-04-19T04:53:51;10.23;;;9.23;;
42194;SDS011;27863;49.440;11.102;2023-04-19T04:56:52;10.30;;;9.30;;
42194;SDS011;27863;49.440;11.102;2023-04-19T04:59:53;10.07;;;9.07;;
42194;SDS011;27863;49.440;11.102;2023-04-19T05:02:57;11.00;;;9.90;;
42194;SDS011;27863;49.440;11.102;2023-04-19T05:05:58;11.00;;;10.00;;
42194;SDS011;27863;49.440;11.102;2023-04-19T05:08:58;10.73;;;9.77;;
42194;SDS011;27863;49.440;11.102;2023-04-19T05:12:06;10.30;;;9.30;;
42194;SDS011;27863;49.440;11.102;2023-04-19T05:15:07;9.67;;;8.67;;
42194;SDS011;27863;49.440;11.102;2023-04-19T05:18:09;10.60;;;9.57;;
42194;SDS011;27863;49.440;11.102;2023-04-19T05:21:10;9.47;;;8.57;;
42194;SDS011;27863;49.440;11.102;2023-04-19T05:24:12;11.60;;;8.40;;
42194;SDS011;27863;49.440;11.102;2023-04-19T05:27:14;10.57;;;9.57;;
42194;SDS011;27863;49.440;11.102;2023-04-19T05:30:18;9.67;;;8.67;;
42194;SDS011;27863;49.440;11.102;2023-04-19T05:33:19;9.40;;;8.50;;
42194;SDS011;27863;49.440;11.102;2023-04-19T05:36:22;9.93;;;9.03;;
42194;SDS011;27863;49.440;11.102;2023-04-19T05:39:25;10.33;;;9.33;;
42194;SDS011;27863;49.440;11.102;2023-04-19T05:42:26;10.57;;;9.57;;
42194;SDS011;27863;49.440;11.102;2023-04-19T05:45:26;9.80;;;8.80;;
42194;SDS011;27863;49.440;11.102;2023-04-19T05:48:27;10.50;;;8.47;;
42194;SDS011;27863;49.440;11.102;2023-04-19T05:51:46;10.23;;;8.90;;
42194;SDS011;27863;49.440;11.102;2023-04-19T05:54:57;10.53;;;9.00;;
42194;SDS011;27863;49.440;11.102;2023-04-19T05:57:57;10.17;;;9.27;;
42194;SDS011;27863;49.440;11.102;2023-04-19T06:00:59;11.33;;;9.87;;
42194;SDS011;27863;49.440;11.102;2023-04-19T06:04:01;11.37;;;9.90;;
42194;SDS011;27863;49.440;11.102;2023-04-19T06:07:01;11.07;;;10.07;;
42194;SDS011;27863;49.440;11.102;2023-04-19T06:10:02;10.20;;;9.27;;
42194;SDS011;27863;49.440;11.102;2023-04-19T06:13:03;11.83;;;9.27;;
42194;SDS011;27863;49.440;11.102;2023-04-19T06:16:04;10.90;;;9.30;;
42194;SDS011;27863;49.440;11.102;2023-04-19T06:19:06;12.17;;;10.93;;
42194;SDS011;27863;49.440;11.102;2023-04-19T06:22:07;11.47;;;10.27;;
42194;SDS011;27863;49.440;11.102;2023-04-19T06:25:07;11.13;;;10.00;;
42194;SDS011;27863;49.440;11.102;2023-04-19T06:28:08;12.10;;;10.80;;
42194;SDS011;27863;49.440;11.102;2023-04-19T06:31:08;14.20;;;11.73;;
42194;SDS011;27863;49.440;11.102;2023-04-19T06:34:10;11.43;;;10.33;;
42194;SDS011;27863;49.440;11.102;2023-04-19T06:37:14;9.70;;;8.83;;
42194;SDS011;27863;49.440;11.102;2023-04-19T06:40:15;10.87;;;9.87;;
42194;SDS011;27863;49.440;11.102;2023-04-19T06:43:15;10.83;;;9.93;;
42194;SDS011;27863;49.440;11.102;2023-04-19T06:46:16;15.77;;;10.60;;
42194;SDS011;27863;49.440;11.102;2023-04-19T06:49:16;10.67;;;9.67;;
42194;SDS011;27863;49.440;11.102;2023-04-19T06:52:16;10.90;;;9.80;;
42194;SDS011;27863;49.440;11.102;2023-04-19T06:55:23;11.10;;;9.97;;
42194;SDS011;27863;49.440;11.102;2023-04-19T06:58:24;11.53;;;9.23;;
42194;SDS011;27863;49.440;11.102;2023-04-19T07:01:24;10.67;;;9.80;;
42194;SDS011;27863;49.440;11.102;2023-04-19T07:04:25;12.37;;;11.17;;
42194;SDS011;27863;49.440;11.102;2023-04-19T07:07:25;11.07;;;9.87;;
42194;SDS011;27863;49.440;11.102;2023-04-19T07:10:26;11.00;;;9.90;;
42194;SDS011;27863;49.440;11.102;2023-04-19T07:13:26;16.67;;;11.00;;
42194;SDS011;27863;49.440;11.102;2023-04-19T07:16:27;12.20;;;10.30;;
42194;SDS011;27863;49.440;11.102;2023-04-19T07:19:29;13.00;;;11.73;;
42194;SDS011;27863;49.440;11.102;2023-04-19T07:22:30;13.93;;;11.00;;
42194;SDS011;27863;49.440;11.102;2023-04-19T07:25:30;12.70;;;11.47;;
42194;SDS011;27863;49.440;11.102;2023-04-19T07:28:30;12.43;;;11.23;;
42194;SDS011;27863;49.440;11.102;2023-04-19T07:31:31;13.13;;;11.27;;
42194;SDS011;27863;49.440;11.102;2023-04-19T07:34:32;13.50;;;12.17;;
42194;SDS011;27863;49.440;11.102;2023-04-19T07:37:32;13.50;;;12.13;;
42194;SDS011;27863;49.440;11.102;2023-04-19T07:40:33;13.50;;;12.20;;
42194;SDS011;27863;49.440;11.102;2023-04-19T07:43:33;13.10;;;11.80;;
42194;SDS011;27863;49.440;11.102;2023-04-19T07:46:34;18.60;;;13.50;;
42194;SDS011;27863;49.440;11.102;2023-04-19T07:49:35;13.37;;;12.03;;
42194;SDS011;27863;49.440;11.102;2023-04-19T07:52:36;14.70;;;11.93;;
42194;SDS011;27863;49.440;11.102;2023-04-19T07:55:37;14.70;;;13.13;;
42194;SDS011;27863;49.440;11.102;2023-04-19T07:58:37;16.30;;;13.37;;
42194;SDS011;27863;49.440;11.102;2023-04-19T08:01:41;14.63;;;12.57;;
42194;SDS011;27863;49.440;11.102;2023-04-19T08:04:42;14.67;;;13.27;;
42194;SDS011;27863;49.440;11.102;2023-04-19T08:07:45;15.13;;;13.13;;
42194;SDS011;27863;49.440;11.102;2023-04-19T08:10:45;13.90;;;12.70;;
42194;SDS011;27863;49.440;11.102;2023-04-19T08:13:45;18.37;;;14.37;;
42194;SDS011;27863;49.440;11.102;2023-04-19T08:16:46;17.27;;;14.07;;
42194;SDS011;27863;49.440;11.102;2023-04-19T08:19:46;15.77;;;14.27;;
42194;SDS011;27863;49.440;11.102;2023-04-19T08:22:48;17.80;;;15.87;;
42194;SDS011;27863;49.440;11.102;2023-04-19T08:25:49;16.37;;;14.87;;
42194;SDS011;27863;49.440;11.102;2023-04-19T08:28:49;19.10;;;15.57;;
42194;SDS011;27863;49.440;11.102;2023-04-19T08:31:51;15.87;;;14.17;;
42194;SDS011;27863;49.440;11.102;2023-04-19T08:34:51;17.07;;;14.37;;
42194;SDS011;27863;49.440;11.102;2023-04-19T08:37:53;22.57;;;15.87;;
42194;SDS011;27863;49.440;11.102;2023-04-19T08:40:54;17.97;;;14.83;;
42194;SDS011;27863;49.440;11.102;2023-04-19T08:43:54;17.07;;;15.37;;
42194;SDS011;27863;49.440;11.102;2023-04-19T08:46:57;22.37;;;14.27;;
42194;SDS011;27863;49.440;11.102;2023-04-19T08:49:59;16.83;;;15.23;;
42194;SDS011;27863;49.440;11.102;2023-04-19T08:53:01;16.67;;;14.50;;
42194;SDS011;27863;49.440;11.102;2023-04-19T08:56:02;16.57;;;14.87;;
42194;SDS011;27863;49.440;11.102;2023-04-19T08:59:04;19.10;;;15.07;;
42194;SDS011;27863;49.440;11.102;2023-04-19T09:02:04;17.17;;;15.40;;
42194;SDS011;27863;49.440;11.102;2023-04-19T09:05:05;15.57;;;14.10;;
42194;SDS011;27863;49.440;11.102;2023-04-19T09:08:22;17.03;;;15.50;;
42194;SDS011;27863;49.440;11.102;2023-04-19T09:11:37;14.77;;;13.37;;
42194;SDS011;27863;49.440;11.102;2023-04-19T09:14:40;14.20;;;12.90;;
42194;SDS011;27863;49.440;11.102;2023-04-19T09:17:43;15.10;;;13.77;;
42194;SDS011;27863;49.440;11.102;2023-04-19T09:21:03;14.63;;;13.27;;
42194;SDS011;27863;49.440;11.102;2023-04-19T09:24:04;15.07;;;13.67;;
42194;SDS011;27863;49.440;11.102;2023-04-19T09:27:05;12.77;;;11.57;;
42194;SDS011;27863;49.440;11.102;2023-04-19T09:30:06;15.73;;;11.87;;
42194;SDS011;27863;49.440;11.102;2023-04-19T09:33:07;13.77;;;12.50;;
42194;SDS011;27863;49.440;11.102;2023-04-19T09:36:08;11.80;;;10.80;;
42194;SDS011;27863;49.440;11.102;2023-04-19T09:39:09;13.90;;;12.60;;
42194;SDS011;27863;49.440;11.102;2023-04-19T09:42:10;12.73;;;11.53;;
42194;SDS011;27863;49.440;11.102;2023-04-19T09:45:11;12.77;;;11.67;;
42194;SDS011;27863;49.440;11.102;2023-04-19T09:48:13;11.33;;;10.33;;
42194;SDS011;27863;49.440;11.102;2023-04-19T09:51:13;11.93;;;10.83;;
42194;SDS011;27863;49.440;11.102;2023-04-19T09:54:15;9.90;;;9.00;;
42194;SDS011;27863;49.440;11.102;2023-04-19T09:57:17;13.27;;;9.77;;
42194;SDS011;27863;49.440;11.102;2023-04-19T10:00:17;13.60;;;10.23;;
42194;SDS011;27863;49.440;11.102;2023-04-19T10:03:20;10.23;;;9.27;;
42194;SDS011;27863;49.440;11.102;2023-04-19T10:06:21;15.33;;;9.37;;
42194;SDS011;27863;49.440;11.102;2023-04-19T10:09:22;10.57;;;9.40;;
42194;SDS011;27863;49.440;11.102;2023-04-19T10:12:23;13.60;;;9.23;;
42194;SDS011;27863;49.440;11.102;2023-04-19T10:15:25;9.67;;;8.77;;
42194;SDS011;27863;49.440;11.102;2023-04-19T10:18:26;9.47;;;8.07;;
42194;SDS011;27863;49.440;11.102;2023-04-19T10:21:27;9.50;;;8.57;;
42194;SDS011;27863;49.440;11.102;2023-04-19T10:24:28;9.63;;;8.67;;
42194;SDS011;27863;49.440;11.102;2023-04-19T10:27:28;18.40;;;9.93;;
42194;SDS011;27863;49.440;11.102;2023-04-19T10:30:29;16.37;;;8.47;;
42194;SDS011;27863;49.440;11.102;2023-04-19T10:33:30;9.53;;;8.63;;
42194;SDS011;27863;49.440;11.102;2023-04-19T10:36:34;7.80;;;6.73;;
42194;SDS011;27863;49.440;11.102;2023-04-19T10:39:42;7.97;;;7.17;;
42194;SDS011;27863;49.440;11.102;2023-04-19T10:49:20;6.77;;;6.17;;
42194;SDS011;27863;49.440;11.102;2023-04-19T10:52:26;6.93;;;6.23;;
42194;SDS011;27863;49.440;11.102;2023-04-19T10:55:28;6.90;;;6.30;;
42194;SDS011;27863;49.440;11.102;2023-04-19T10:58:57;5.93;;;5.30;;
42194;SDS011;27863;49.440;11.102;2023-04-19T11:05:21;4.63;;;4.20;;
42194;SDS011;27863;49.440;11.102;2023-04-19T11:08:21;5.83;;;5.33;;
42194;SDS011;27863;49.440;11.102;2023-04-19T11:11:22;5.83;;;5.23;;
42194;SDS011;27863;49.440;11.102;2023-04-19T11:14:24;5.17;;;4.67;;
42194;SDS011;27863;49.440;11.102;2023-04-19T11:17:27;4.67;;;4.03;;
42194;SDS011;27863;49.440;11.102;2023-04-19T11:20:30;4.63;;;4.23;;
42194;SDS011;27863;49.440;11.102;2023-04-19T11:23:30;4.53;;;4.10;;
42194;SDS011;27863;49.440;11.102;2023-04-19T11:26:31;4.77;;;4.37;;
42194;SDS011;27863;49.440;11.102;2023-04-19T11:29:31;4.90;;;4.37;;
42194;SDS011;27863;49.440;11.102;2023-04-19T11:32:32;4.37;;;3.97;;
42194;SDS011;27863;49.440;11.102;2023-04-19T11:35:33;6.60;;;4.40;;
42194;SDS011;27863;49.440;11.102;2023-04-19T11:38:33;4.90;;;4.50;;
42194;SDS011;27863;49.440;11.102;2023-04-19T11:41:37;3.90;;;3.60;;
42194;SDS011;27863;49.440;11.102;2023-04-19T11:44:38;4.43;;;4.00;;
42194;SDS011;27863;49.440;11.102;2023-04-19T11:47:48;3.97;;;3.67;;
42194;SDS011;27863;49.440;11.102;2023-04-19T11:50:49;3.70;;;3.40;;
42194;SDS011;27863;49.440;11.102;2023-04-19T11:53:50;4.57;;;4.17;;
42194;SDS011;27863;49.440;11.102;2023-04-19T11:57:01;4.27;;;3.97;;
42194;SDS011;27863;49.440;11.102;2023-04-19T12:00:06;4.33;;;4.00;;
42194;SDS011;27863;49.440;11.102;2023-04-19T12:03:14;4.50;;;4.10;;
42194;SDS011;27863;49.440;11.102;2023-04-19T12:06:22;3.63;;;3.33;;
42194;SDS011;27863;49.440;11.102;2023-04-19T12:09:23;4.87;;;4.47;;
42194;SDS011;27863;49.440;11.102;2023-04-19T12:12:32;4.13;;;3.73;;
42194;SDS011;27863;49.440;11.102;2023-04-19T12:15:42;3.40;;;3.13;;
42194;SDS011;27863;49.440;11.102;2023-04-19T12:18:44;3.10;;;2.40;;
42194;SDS011;27863;49.440;11.102;2023-04-19T12:21:45;2.40;;;2.20;;
42194;SDS011;27863;49.440;11.102;2023-04-19T12:24:49;2.37;;;2.17;;
42194;SDS011;27863;49.440;11.102;2023-04-19T12:27:50;1.90;;;1.77;;
42194;SDS011;27863;49.440;11.102;2023-04-19T12:30:51;2.33;;;2.10;;
42194;SDS011;27863;49.440;11.102;2023-04-19T12:33:52;3.23;;;2.67;;
42194;SDS011;27863;49.440;11.102;2023-04-19T12:36:53;1.70;;;1.60;;
42194;SDS011;27863;49.440;11.102;2023-04-19T12:39:54;2.50;;;1.50;;
42194;SDS011;27863;49.440;11.102;2023-04-19T12:42:54;2.17;;;1.73;;
42194;SDS011;27863;49.440;11.102;2023-04-19T12:45:55;1.30;;;1.20;;
42194;SDS011;27863;49.440;11.102;2023-04-19T12:48:56;6.53;;;1.63;;
42194;SDS011;27863;49.440;11.102;2023-04-19T12:51:56;2.03;;;1.53;;
42194;SDS011;27863;49.440;11.102;2023-04-19T12:54:57;1.30;;;1.20;;
42194;SDS011;27863;49.440;11.102;2023-04-19T12:57:57;2.13;;;1.10;;
42194;SDS011;27863;49.440;11.102;2023-04-19T13:00:58;2.00;;;1.30;;
42194;SDS011;27863;49.440;11.102;2023-04-19T13:03:58;2.13;;;1.20;;
42194;SDS011;27863;49.440;11.102;2023-04-19T13:06:59;1.10;;;0.90;;
42194;SDS011;27863;49.440;11.102;2023-04-19T13:10:00;1.87;;;1.10;;
42194;SDS011;27863;49.440;11.102;2023-04-19T13:13:00;13.00;;;1.30;;
42194;SDS011;27863;49.440;11.102;2023-04-19T13:16:01;1.37;;;1.10;;
42194;SDS011;27863;49.440;11.102;2023-04-19T13:19:01;1.77;;;1.23;;
42194;SDS011;27863;49.440;11.102;2023-04-19T13:22:03;5.40;;;1.37;;
42194;SDS011;27863;49.440;11.102;2023-04-19T13:25:04;2.50;;;1.23;;
42194;SDS011;27863;49.440;11.102;2023-04-19T13:28:05;1.53;;;1.10;;
42194;SDS011;27863;49.440;11.102;2023-04-19T13:31:05;1.30;;;1.20;;
42194;SDS011;27863;49.440;11.102;2023-04-19T13:34:06;1.17;;;1.03;;
42194;SDS011;27863;49.440;11.102;2023-04-19T13:37:07;1.57;;;0.90;;
42194;SDS011;27863;49.440;11.102;2023-04-19T13:40:08;1.80;;;1.20;;
42194;SDS011;27863;49.440;11.102;2023-04-19T13:43:09;1.20;;;1.10;;
42194;SDS011;27863;49.440;11.102;2023-04-19T13:46:10;2.63;;;1.57;;
42194;SDS011;27863;49.440;11.102;2023-04-19T13:49:10;2.93;;;1.80;;
42194;SDS011;27863;49.440;11.102;2023-04-19T13:52:12;1.90;;;1.70;;
42194;SDS011;27863;49.440;11.102;2023-04-19T13:55:13;3.10;;;1.67;;
42194;SDS011;27863;49.440;11.102;2023-04-19T13:58:14;1.73;;;1.27;;
42194;SDS011;27863;49.440;11.102;2023-04-19T14:01:15;1.60;;;1.50;;
42194;SDS011;27863;49.440;11.102;2023-04-19T14:04:15;2.80;;;1.70;;
42194;SDS011;27863;49.440;11.102;2023-04-19T14:07:16;2.03;;;1.57;;
42194;SDS011;27863;49.440;11.102;2023-04-19T14:10:16;1.50;;;1.40;;
42194;SDS011;27863;49.440;11.102;2023-04-19T14:13:17;2.10;;;1.80;;
42194;SDS011;27863;49.440;11.102;2023-04-19T14:16:17;1.67;;;1.57;;
42194;SDS011;27863;49.440;11.102;2023-04-19T14:19:19;7.60;;;2.30;;
42194;SDS011;27863;49.440;11.102;2023-04-19T14:22:20;3.70;;;2.07;;
42194;SDS011;27863;49.440;11.102;2023-04-19T14:25:21;2.03;;;1.70;;
42194;SDS011;27863;49.440;11.102;2023-04-19T14:28:22;2.97;;;1.97;;
42194;SDS011;27863;49.440;11.102;2023-04-19T14:31:22;2.30;;;1.87;;
42194;SDS011;27863;49.440;11.102;2023-04-19T14:34:23;5.13;;;2.07;;
42194;SDS011;27863;49.440;11.102;2023-04-19T14:37:23;2.20;;;2.00;;
42194;SDS011;27863;49.440;11.102;2023-04-19T14:40:24;2.27;;;1.80;;
42194;SDS011;27863;49.440;11.102;2023-04-19T14:43:25;3.90;;;1.87;;
42194;SDS011;27863;49.440;11.102;2023-04-19T14:46:25;2.40;;;1.47;;
42194;SDS011;27863;49.440;11.102;2023-04-19T14:49:26;1.70;;;1.60;;
42194;SDS011;27863;49.440;11.102;2023-04-19T14:52:27;1.70;;;1.33;;
42194;SDS011;27863;49.440;11.102;2023-04-19T14:55:29;1.93;;;1.83;;
42194;SDS011;27863;49.440;11.102;2023-04-19T14:58:29;4.03;;;1.60;;
42194;SDS011;27863;49.440;11.102;2023-04-19T15:01:30;1.97;;;1.77;;
42194;SDS011;27863;49.440;11.102;2023-04-19T15:04:34;5.63;;;2.13;;
42194;SDS011;27863;49.440;11.102;2023-04-19T15:07:34;1.70;;;1.60;;
42194;SDS011;27863;49.440;11.102;2023-04-19T15:10:35;1.60;;;1.50;;
42194;SDS011;27863;49.440;11.102;2023-04-19T15:13:35;2.77;;;1.70;;
42194;SDS011;27863;49.440;11.102;2023-04-19T15:16:36;1.57;;;1.43;;
42194;SDS011;27863;49.440;11.102;2023-04-19T15:19:37;1.73;;;1.43;;
42194;SDS011;27863;49.440;11.102;2023-04-19T15:22:37;1.33;;;1.23;;
42194;SDS011;27863;49.440;11.102;2023-04-19T15:25:38;3.00;;;2.80;;
42194;SDS011;27863;49.440;11.102;2023-04-19T15:28:39;2.87;;;1.80;;
42194;SDS011;27863;49.440;11.102;2023-04-19T15:31:40;1.50;;;1.40;;
42194;SDS011;27863;49.440;11.102;2023-04-19T15:34:41;1.50;;;1.40;;
42194;SDS011;27863;49.440;11.102;2023-04-19T15:37:42;1.60;;;1.50;;
42194;SDS011;27863;49.440;11.102;2023-04-19T15:40:43;1.60;;;1.50;;
42194;SDS011;27863;49.440;11.102;2023-04-19T15:43:43;1.60;;;1.20;;
42194;SDS011;27863;49.440;11.102;2023-04-19T15:46:44;3.00;;;2.00;;
42194;SDS011;27863;49.440;11.102;2023-04-19T15:49:44;2.53;;;1.70;;
42194;SDS011;27863;49.440;11.102;2023-04-19T15:52:46;3.07;;;1.40;;
42194;SDS011;27863;49.440;11.102;2023-04-19T15:55:46;1.10;;;1.10;;
42194;SDS011;27863;49.440;11.102;2023-04-19T15:58:47;1.50;;;1.40;;
42194;SDS011;27863;49.440;11.102;2023-04-19T16:01:48;2.57;;;1.23;;
42194;SDS011;27863;49.440;11.102;2023-04-19T16:04:48;4.87;;;1.70;;
42194;SDS011;27863;49.440;11.102;2023-04-19T16:08:08;1.60;;;1.50;;
42194;SDS011;27863;49.440;11.102;2023-04-19T16:11:09;1.70;;;1.60;;
42194;SDS011;27863;49.440;11.102;2023-04-19T16:14:09;2.20;;;1.50;;
42194;SDS011;27863;49.440;11.102;2023-04-19T16:17:10;2.90;;;1.63;;
42194;SDS011;27863;49.440;11.102;2023-04-19T16:20:10;1.40;;;1.30;;
42194;SDS011;27863;49.440;11.102;2023-04-19T16:23:11;2.47;;;2.03;;
42194;SDS011;27863;49.440;11.102;2023-04-19T16:26:13;1.83;;;1.67;;
42194;SDS011;27863;49.440;11.102;2023-04-19T16:29:14;1.67;;;1.57;;
42194;SDS011;27863;49.440;11.102;2023-04-19T16:32:15;3.03;;;2.00;;
42194;SDS011;27863;49.440;11.102;2023-04-19T16:35:15;2.53;;;1.60;;
42194;SDS011;27863;49.440;11.102;2023-04-19T16:38:17;1.87;;;1.50;;
42194;SDS011;27863;49.440;11.102;2023-04-19T16:41:17;1.83;;;1.73;;
42194;SDS011;27863;49.440;11.102;2023-04-19T16:44:19;4.63;;;1.70;;
42194;SDS011;27863;49.440;11.102;2023-04-19T16:47:20;2.30;;;2.10;;
42194;SDS011;27863;49.440;11.102;2023-04-19T16:50:20;1.80;;;1.70;;
42194;SDS011;27863;49.440;11.102;2023-04-19T16:53:21;2.10;;;1.50;;
42194;SDS011;27863;49.440;11.102;2023-04-19T16:56:22;1.83;;;1.73;;
42194;SDS011;27863;49.440;11.102;2023-04-19T16:59:24;2.20;;;2.00;;
42194;SDS011;27863;49.440;11.102;2023-04-19T17:02:24;2.77;;;2.33;;
42194;SDS011;27863;49.440;11.102;2023-04-19T17:05:25;2.33;;;1.90;;
42194;SDS011;27863;49.440;11.102;2023-04-19T17:08:25;2.87;;;2.20;;
42194;SDS011;27863;49.440;11.102;2023-04-19T17:11:26;3.83;;;2.47;;
42194;SDS011;27863;49.440;11.102;2023-04-19T17:14:30;2.20;;;1.77;;
42194;SDS011;27863;49.440;11.102;2023-04-19T17:17:33;2.53;;;2.20;;
42194;SDS011;27863;49.440;11.102;2023-04-19T17:20:33;2.27;;;2.07;;
42194;SDS011;27863;49.440;11.102;2023-04-19T17:23:34;1.90;;;1.80;;
42194;SDS011;27863;49.440;11.102;2023-04-19T17:26:35;1.77;;;1.67;;
42194;SDS011;27863;49.440;11.102;2023-04-19T17:29:35;5.20;;;1.90;;
42194;SDS011;27863;49.440;11.102;2023-04-19T17:32:36;2.23;;;2.03;;
42194;SDS011;27863;49.440;11.102;2023-04-19T17:35:37;2.17;;;1.97;;
42194;SDS011;27863;49.440;11.102;2023-04-19T17:38:37;2.20;;;2.00;;
42194;SDS011;27863;49.440;11.102;2023-04-19T17:41:38;2.37;;;1.90;;
42194;SDS011;27863;49.440;11.102;2023-04-19T17:44:38;2.53;;;1.90;;
42194;SDS011;27863;49.440;11.102;2023-04-19T17:47:39;4.47;;;2.57;;
42194;SDS011;27863;49.440;11.102;2023-04-19T17:50:40;2.53;;;2.23;;
42194;SDS011;27863;49.440;11.102;2023-04-19T17:53:40;2.60;;;2.23;;
42194;SDS011;27863;49.440;11.102;2023-04-19T17:56:41;3.03;;;2.00;;
42194;SDS011;27863;49.440;11.102;2023-04-19T17:59:41;2.57;;;2.37;;